Time;durP1;ratioP1;P1;durP2;ratioP2;P2;SDS_P1;SDS_P2;PMS_P1;PMS_P2;Temp;Humidity;BMP_temperature;BMP_pressure;BME280_temperature;BME280_humidity;BME280_pressure;Samples;Min_cycle;Max_cycle;Signal;HPM_P1;HPM_P2
2021/03/14 00:03:16;;;;;;;7.72;2.25;;;;;;;;;;10315212;28;20033;-60
2021/03/14 00:08:13;;;;;;;14.48;3.25;;;;;;;;;;10317307;28;20929;-62
2021/03/14 00:13:12;;;;;;;17.05;3.75;;;;;;;;;;10307662;28;20553;-58
2021/03/14 00:18:09;;;;;;;;;;;;;;;;;;10314334;28;20095;-58
2021/03/14 00:23:07;;;;;;;18.08;3.45;;;;;;;;;;10350477;28;19951;-60
2021/03/14 00:28:05;;;;;;;17.17;2.43;;;;;;;;;;10321427;28;20042;-60
2021/03/14 00:33:02;;;;;;;12.80;2.35;;;;;;;;;;10314404;28;20045;-57
2021/03/14 00:38:00;;;;;;;16.87;2.50;;;;;;;;;;10340820;28;20048;-58
2021/03/14 00:42:59;;;;;;;13.93;2.67;;;;;;;;;;10324516;28;20445;-62
2021/03/14 00:47:58;;;;;;;12.73;3.15;;;;;;;;;;10325927;28;20065;-60
2021/03/14 00:52:55;;;;;;;19.52;2.92;;;;;;;;;;10324141;28;20036;-59
2021/03/14 00:57:55;;;;;;;13.00;2.95;;;;;;;;;;10342330;28;20507;-60
2021/03/14 01:02:53;;;;;;;12.80;2.57;;;;;;;;;;10331113;28;20034;-59
2021/03/14 01:07:53;;;;;;;15.35;2.47;;;;;;;;;;10328066;28;20481;-57
2021/03/14 01:12:51;;;;;;;11.57;2.73;;;;;;;;;;10328597;28;20140;-59
2021/03/14 01:17:53;;;;;;;12.80;3.08;;;;;;;;;;10322098;28;20071;-59
2021/03/14 01:22:51;;;;;;;15.77;2.10;;;;;;;;;;10336595;28;20053;-59
2021/03/14 01:27:48;;;;;;;9.10;2.23;;;;;;;;;;10330378;28;20042;-59
2021/03/14 01:32:46;;;;;;;8.53;1.90;;;;;;;;;;10343441;28;20040;-60
2021/03/14 01:37:44;;;;;;;6.72;1.65;;;;;;;;;;10321397;28;20123;-62
2021/03/14 01:42:42;;;;;;;14.30;2.85;;;;;;;;;;10318583;28;20029;-60
2021/03/14 01:47:43;;;;;;;12.77;2.40;;;;;;;;;;10350862;28;20040;-61
2021/03/14 01:52:41;;;;;;;10.90;2.45;;;;;;;;;;10324611;28;20037;-62
2021/03/14 01:57:38;;;;;;;18.83;2.20;;;;;;;;;;10340811;28;20048;-59
2021/03/14 02:02:36;;;;;;;12.83;2.87;;;;;;;;;;10331966;28;20025;-61
2021/03/14 02:07:34;;;;;;;17.33;3.17;;;;;;;;;;10306259;28;20033;-60
2021/03/14 02:12:35;;;;;;;9.37;2.33;;;;;;;;;;10337337;28;20049;-62
2021/03/14 02:17:35;;;;;;;15.07;3.03;;;;;;;;;;10341042;28;20029;-61
2021/03/14 02:22:33;;;;;;;16.15;2.78;;;;;;;;;;10337368;28;20029;-63
2021/03/14 02:27:30;;;;;;;14.87;3.13;;;;;;;;;;10330916;28;20044;-64
2021/03/14 02:32:28;;;;;;;19.57;3.10;;;;;;;;;;10330896;28;20608;-63
2021/03/14 02:37:26;;;;;;;21.40;2.90;;;;;;;;;;10327930;28;20501;-62
2021/03/14 02:42:24;;;;;;;9.25;1.77;;;;;;;;;;10326488;28;20100;-60
2021/03/14 02:47:23;;;;;;;12.27;2.85;;;;;;;;;;10319086;28;20070;-58
2021/03/14 02:52:21;;;;;;;14.10;2.25;;;;;;;;;;10340647;28;20056;-60
2021/03/14 02:57:20;;;;;;;8.98;2.28;;;;;;;;;;10328495;28;20048;-60
2021/03/14 03:02:17;;;;;;;;;;;;;;;;;;10326840;28;20051;-62
2021/03/14 03:07:15;;;;;;;8.68;2.20;;;;;;;;;;10325088;28;19912;-61
2021/03/14 03:12:14;;;;;;;9.50;2.55;;;;;;;;;;10315931;28;20521;-61
2021/03/14 03:17:12;;;;;;;11.88;1.80;;;;;;;;;;10334508;28;20041;-60
2021/03/14 03:22:10;;;;;;;7.15;1.50;;;;;;;;;;10334990;28;20041;-60
2021/03/14 03:27:07;;;;;;;10.20;2.63;;;;;;;;;;10317221;28;20045;-59
2021/03/14 03:32:05;;;;;;;10.10;1.40;;;;;;;;;;10323221;28;20067;-61
2021/03/14 03:37:02;;;;;;;10.17;2.40;;;;;;;;;;10337241;28;20124;-60
2021/03/14 03:42:01;;;;;;;13.57;1.90;;;;;;;;;;10326969;28;20040;-62
2021/03/14 03:46:59;;;;;;;10.90;1.65;;;;;;;;;;10336204;28;20339;-62
2021/03/14 03:51:58;;;;;;;11.65;2.05;;;;;;;;;;10330562;28;20033;-59
2021/03/14 03:56:57;;;;;;;11.15;2.05;;;;;;;;;;10330563;28;20033;-61
2021/03/14 04:01:55;;;;;;;12.52;2.58;;;;;;;;;;10325714;28;20038;-61
2021/03/14 04:06:53;;;;;;;5.03;1.70;;;;;;;;;;10313322;28;20041;-62
2021/03/14 04:11:51;;;;;;;7.80;2.10;;;;;;;;;;10315835;28;20051;-64
2021/03/14 04:16:49;;;;;;;12.77;2.17;;;;;;;;;;10324149;28;20545;-63
2021/03/14 04:21:50;;;;;;;7.82;1.30;;;;;;;;;;10321682;28;20075;-60
2021/03/14 04:26:49;;;;;;;10.20;2.05;;;;;;;;;;10329360;28;20044;-62
2021/03/14 04:31:47;;;;;;;6.55;1.50;;;;;;;;;;10321416;28;20048;-62
2021/03/14 04:36:46;;;;;;;7.03;2.05;;;;;;;;;;10334089;28;20104;-62
2021/03/14 04:41:43;;;;;;;;;;;;;;;;;;10319791;28;20481;-62
2021/03/14 04:46:42;;;;;;;10.98;1.80;;;;;;;;;;10310094;28;19913;-62
2021/03/14 04:51:41;;;;;;;11.55;1.65;;;;;;;;;;10326261;28;20881;-62
2021/03/14 04:56:39;;;;;;;4.97;2.05;;;;;;;;;;10324997;28;20061;-59
2021/03/14 05:01:38;;;;;;;3.90;2.20;;;;;;;;;;10327711;28;20127;-60
2021/03/14 05:06:36;;;;;;;13.82;1.77;;;;;;;;;;10321086;28;20127;-60
2021/03/14 05:11:34;;;;;;;2.90;1.13;;;;;;;;;;10320737;28;20121;-61
2021/03/14 05:16:32;;;;;;;6.25;2.13;;;;;;;;;;10323435;28;20056;-60
2021/03/14 05:21:30;;;;;;;13.00;2.00;;;;;;;;;;10324885;28;20044;-61
2021/03/14 05:26:28;;;;;;;5.57;1.85;;;;;;;;;;10339214;28;20136;-62
2021/03/14 05:31:33;;;;;;;12.90;1.50;;;;;;;;;;10322119;28;20096;-64
2021/03/14 05:36:30;;;;;;;8.43;1.75;;;;;;;;;;10341673;28;20279;-62
2021/03/14 05:41:28;;;;;;;12.90;1.60;;;;;;;;;;10329132;28;20036;-63
2021/03/14 05:46:25;;;;;;;3.00;1.23;;;;;;;;;;10330988;28;20164;-62
2021/03/14 05:51:27;;;;;;;11.40;2.33;;;;;;;;;;10335108;28;20033;-59
2021/03/14 05:56:26;;;;;;;8.65;1.98;;;;;;;;;;10332665;28;20036;-62
2021/03/14 06:01:27;;;;;;;10.80;1.63;;;;;;;;;;10328072;28;20093;-61
2021/03/14 06:06:24;;;;;;;4.05;1.40;;;;;;;;;;10329523;28;20364;-61
2021/03/14 06:11:22;;;;;;;5.43;1.00;;;;;;;;;;10329169;28;20021;-61
2021/03/14 06:16:19;;;;;;;3.67;1.03;;;;;;;;;;10329942;28;20056;-61
2021/03/14 06:21:22;;;;;;;3.97;0.83;;;;;;;;;;10326355;28;20134;-60
2021/03/14 06:26:19;;;;;;;8.57;1.63;;;;;;;;;;10335833;28;20072;-60
2021/03/14 06:31:21;;;;;;;12.57;1.87;;;;;;;;;;10321846;28;20044;-61
2021/03/14 06:36:19;;;;;;;7.72;0.82;;;;;;;;;;10335100;28;20039;-62
2021/03/14 06:41:20;;;;;;;4.13;1.15;;;;;;;;;;10313051;28;20572;-62
2021/03/14 06:46:28;;;;;;;7.32;1.70;;;;;;;;;;10328316;28;20120;-63
2021/03/14 06:51:32;;;;;;;15.65;2.47;;;;;;;;;;10324150;28;20037;-60
2021/03/14 06:56:30;;;;;;;12.25;2.13;;;;;;;;;;10332146;28;20173;-62
2021/03/14 07:01:27;;;;;;;10.43;2.00;;;;;;;;;;10337813;28;20123;-60
2021/03/14 07:06:26;;;;;;;13.33;2.20;;;;;;;;;;10334496;28;20033;-61
2021/03/14 07:11:32;;;;;;;10.48;1.70;;;;;;;;;;10321967;28;20525;-63
2021/03/14 07:16:42;;;;;;;15.30;2.00;;;;;;;;;;10332152;28;20064;-62
2021/03/14 07:21:39;;;;;;;8.32;1.40;;;;;;;;;;10332783;28;20651;-62
2021/03/14 07:26:44;;;;;;;11.87;2.13;;;;;;;;;;10337593;28;20032;-59
2021/03/14 07:31:41;;;;;;;13.23;2.35;;;;;;;;;;10345804;28;20039;-61
2021/03/14 07:36:39;;;;;;;16.63;2.17;;;;;;;;;;10336611;28;20178;-60
2021/03/14 07:41:36;;;;;;;11.87;2.30;;;;;;;;;;10328686;28;20044;-62
2021/03/14 07:46:34;;;;;;;10.33;2.50;;;;;;;;;;10326980;28;20029;-59
2021/03/14 07:51:32;;;;;;;13.10;3.17;;;;;;;;;;10332777;28;20406;-65
2021/03/14 07:56:33;;;;;;;16.25;2.53;;;;;;;;;;10320857;28;20139;-61
2021/03/14 08:01:34;;;;;;;6.32;1.98;;;;;;;;;;10310085;28;20178;-61
2021/03/14 08:06:41;;;;;;;11.00;1.73;;;;;;;;;;10324542;28;20390;-60
2021/03/14 08:11:38;;;;;;;7.15;1.67;;;;;;;;;;10313827;28;20036;-58
2021/03/14 08:16:35;;;;;;;16.23;1.70;;;;;;;;;;10319284;28;20029;-60
2021/03/14 08:21:33;;;;;;;4.13;1.70;;;;;;;;;;10327673;28;20067;-61
2021/03/14 08:26:34;;;;;;;11.63;1.53;;;;;;;;;;10332858;28;20033;-60
2021/03/14 08:31:54;;;;;;;10.35;2.30;;;;;;;;;;10305270;28;20164;-60
2021/03/14 08:36:56;;;;;;;4.22;1.40;;;;;;;;;;10318555;28;20041;-60
2021/03/14 08:42:11;;;;;;;11.32;1.77;;;;;;;;;;10334193;28;20055;-60
2021/03/14 08:47:25;;;;;;;12.05;2.30;;;;;;;;;;10331471;28;20025;-59
2021/03/14 08:52:31;;;;;;;10.50;2.20;;;;;;;;;;10336386;28;20129;-61
2021/03/14 08:57:51;;;;;;;10.70;2.40;;;;;;;;;;10326115;28;20510;-61
2021/03/14 09:02:49;;;;;;;12.17;1.67;;;;;;;;;;10310040;28;21085;-60
2021/03/14 09:07:59;;;;;;;6.18;1.35;;;;;;;;;;10338549;28;20057;-60
2021/03/14 09:12:59;;;;;;;8.52;1.70;;;;;;;;;;10336042;28;20025;-59
2021/03/14 09:18:09;;;;;;;14.55;1.98;;;;;;;;;;10311972;28;20029;-60
2021/03/14 09:23:07;;;;;;;10.38;1.60;;;;;;;;;;10337425;28;20040;-58
2021/03/14 09:28:17;;;;;;;13.38;2.67;;;;;;;;;;10337914;28;20064;-60
2021/03/14 09:33:22;;;;;;;15.63;1.65;;;;;;;;;;10330701;28;20037;-60
2021/03/14 09:38:41;;;;;;;10.60;2.25;;;;;;;;;;10333995;28;20041;-61
2021/03/14 09:43:49;;;;;;;6.10;1.30;;;;;;;;;;10344583;28;20581;-61
2021/03/14 09:49:13;;;;;;;10.02;1.63;;;;;;;;;;10324897;28;20045;-60
2021/03/14 09:54:14;;;;;;;23.38;2.78;;;;;;;;;;10344918;28;20517;-62
2021/03/14 09:59:17;;;;;;;13.27;2.28;;;;;;;;;;10318059;28;20037;-60
2021/03/14 10:04:25;;;;;;;5.90;1.38;;;;;;;;;;10339073;28;20394;-60
2021/03/14 10:09:39;;;;;;;8.82;2.17;;;;;;;;;;10312131;28;20029;-59
2021/03/14 10:14:45;;;;;;;12.63;2.20;;;;;;;;;;10308469;28;21371;-59
2021/03/14 10:19:46;;;;;;;14.98;1.83;;;;;;;;;;10320065;28;20402;-60
2021/03/14 10:24:44;;;;;;;8.32;2.05;;;;;;;;;;10310767;28;20048;-62
2021/03/14 10:29:53;;;;;;;4.82;2.13;;;;;;;;;;10283522;28;20453;-61
2021/03/14 10:35:10;;;;;;;6.53;1.85;;;;;;;;;;10296767;28;20041;-61
2021/03/14 10:40:10;;;;;;;3.55;1.20;;;;;;;;;;10298383;28;20186;-63
2021/03/14 10:45:09;;;;;;;5.50;1.30;;;;;;;;;;10272295;28;20021;-61
2021/03/14 10:50:17;;;;;;;9.27;1.88;;;;;;;;;;10301328;28;20083;-62
2021/03/14 10:55:25;;;;;;;4.03;1.00;;;;;;;;;;10282480;28;20044;-63
2021/03/14 11:00:26;;;;;;;5.22;1.08;;;;;;;;;;10277439;28;20062;-62
2021/03/14 11:05:24;;;;;;;8.45;1.30;;;;;;;;;;10264522;28;20036;-61
2021/03/14 11:10:26;;;;;;;10.40;1.90;;;;;;;;;;10267690;28;20040;-63
2021/03/14 11:15:44;;;;;;;3.08;1.10;;;;;;;;;;10259065;28;20106;-65
2021/03/14 11:20:54;;;;;;;9.65;1.52;;;;;;;;;;10274035;28;20098;-61
2021/03/14 11:25:52;;;;;;;2.80;1.20;;;;;;;;;;10279410;28;20433;-62
2021/03/14 11:30:52;;;;;;;3.92;1.00;;;;;;;;;;10272741;28;20033;-59
2021/03/14 11:35:56;;;;;;;6.10;1.92;;;;;;;;;;10230323;27;20380;-62
2021/03/14 11:41:04;;;;;;;6.78;1.95;;;;;;;;;;10190522;28;20205;-63
2021/03/14 11:46:20;;;;;;;8.75;1.27;;;;;;;;;;10191112;28;20030;-64
2021/03/14 11:51:27;;;;;;;6.15;1.90;;;;;;;;;;10271998;28;20073;-61
2021/03/14 11:56:31;;;;;;;7.18;1.60;;;;;;;;;;10304558;28;20060;-62
2021/03/14 12:01:32;;;;;;;7.63;1.40;;;;;;;;;;10247927;28;20530;-62
2021/03/14 12:06:33;;;;;;;6.35;1.67;;;;;;;;;;10282065;28;20037;-62
2021/03/14 12:11:43;;;;;;;1.85;1.25;;;;;;;;;;10276075;28;20135;-61
2021/03/14 12:16:42;;;;;;;9.43;1.67;;;;;;;;;;10288411;28;20034;-62
2021/03/14 12:21:41;;;;;;;10.77;1.63;;;;;;;;;;10282603;28;20038;-61
2021/03/14 12:26:38;;;;;;;8.47;1.40;;;;;;;;;;10269503;28;20042;-64
2021/03/14 12:31:47;;;;;;;4.65;1.10;;;;;;;;;;10277735;28;20033;-61
2021/03/14 12:36:45;;;;;;;5.43;0.77;;;;;;;;;;10285667;28;20657;-60
2021/03/14 12:41:51;;;;;;;5.93;1.05;;;;;;;;;;10285117;28;20125;-61
2021/03/14 12:46:50;;;;;;;4.43;1.25;;;;;;;;;;10243333;28;20495;-62
2021/03/14 12:51:48;;;;;;;5.20;1.35;;;;;;;;;;10260343;28;20434;-59
2021/03/14 12:56:47;;;;;;;5.53;1.50;;;;;;;;;;10250468;28;20590;-63
2021/03/14 13:01:45;;;;;;;5.55;1.23;;;;;;;;;;10253018;28;20228;-59
2021/03/14 13:06:43;;;;;;;3.30;1.70;;;;;;;;;;10247863;28;20041;-61
2021/03/14 13:11:40;;;;;;;4.93;1.00;;;;;;;;;;10220177;28;20169;-62
2021/03/14 13:16:37;;;;;;;7.60;1.67;;;;;;;;;;10222825;28;20036;-60
2021/03/14 13:21:35;;;;;;;2.93;1.13;;;;;;;;;;10219791;28;20061;-62
2021/03/14 13:26:32;;;;;;;2.67;0.90;;;;;;;;;;10210271;28;20419;-62
2021/03/14 13:31:30;;;;;;;7.60;1.17;;;;;;;;;;10219095;28;20042;-61
2021/03/14 13:36:28;;;;;;;12.43;2.10;;;;;;;;;;10211277;28;20058;-63
2021/03/14 13:41:25;;;;;;;4.38;1.38;;;;;;;;;;10209695;28;20103;-62
2021/03/14 13:46:22;;;;;;;11.83;2.17;;;;;;;;;;10228172;28;20674;-62
2021/03/14 13:51:20;;;;;;;5.20;1.37;;;;;;;;;;10217993;28;20575;-64
2021/03/14 13:56:17;;;;;;;10.67;1.43;;;;;;;;;;10220097;28;20585;-63
2021/03/14 14:01:15;;;;;;;9.47;1.40;;;;;;;;;;10198036;28;20046;-63
2021/03/14 14:06:13;;;;;;;9.40;1.80;;;;;;;;;;10210556;28;20750;-62
2021/03/14 14:11:10;;;;;;;14.07;2.23;;;;;;;;;;10217845;28;21538;-60
2021/03/14 14:16:08;;;;;;;13.07;2.10;;;;;;;;;;10218854;28;20646;-63
2021/03/14 14:21:05;;;;;;;10.63;1.20;;;;;;;;;;10200508;28;20045;-62
2021/03/14 14:26:02;;;;;;;4.30;1.47;;;;;;;;;;10220876;28;20125;-62
2021/03/14 14:31:01;;;;;;;4.28;1.55;;;;;;;;;;10204348;28;20041;-62
2021/03/14 14:35:58;;;;;;;6.83;1.47;;;;;;;;;;10217285;28;20045;-62
2021/03/14 14:40:55;;;;;;;3.30;0.80;;;;;;;;;;10218279;28;20133;-62
2021/03/14 14:45:53;;;;;;;13.47;2.07;;;;;;;;;;10207294;28;20041;-66
2021/03/14 14:50:50;;;;;;;2.70;0.60;;;;;;;;;;10200867;28;20301;-61
2021/03/14 14:55:48;;;;;;;3.73;1.40;;;;;;;;;;10212261;28;20104;-61
2021/03/14 15:00:45;;;;;;;5.77;1.67;;;;;;;;;;10217692;28;20621;-63
2021/03/14 15:05:43;;;;;;;3.53;1.73;;;;;;;;;;10220005;28;20175;-61
2021/03/14 15:10:40;;;;;;;5.90;1.27;;;;;;;;;;10215006;28;20042;-64
2021/03/14 15:15:40;;;;;;;5.60;1.43;;;;;;;;;;10210283;28;20627;-62
2021/03/14 15:20:38;;;;;;;8.55;1.52;;;;;;;;;;10209704;28;20196;-61
2021/03/14 15:25:35;;;;;;;2.70;1.27;;;;;;;;;;10203955;28;20131;-63
2021/03/14 15:30:32;;;;;;;4.70;0.87;;;;;;;;;;10212317;28;20561;-61
2021/03/14 15:35:30;;;;;;;23.23;4.33;;;;;;;;;;10212294;28;20551;-62
2021/03/14 15:40:28;;;;;;;52.83;19.23;;;;;;;;;;10209892;28;20468;-64
2021/03/14 15:45:26;;;;;;;;;;;;;;;;;;10212661;28;20045;-64
2021/03/14 15:50:23;;;;;;;27.08;8.95;;;;;;;;;;10200657;28;19983;-62
2021/03/14 15:55:20;;;;;;;20.57;6.67;;;;;;;;;;10207440;28;20474;-61
2021/03/14 16:00:18;;;;;;;21.40;8.03;;;;;;;;;;10202666;28;20049;-60
2021/03/14 16:05:16;;;;;;;29.23;7.47;;;;;;;;;;10218060;28;20054;-62
2021/03/14 16:10:13;;;;;;;13.20;5.30;;;;;;;;;;10218736;28;20281;-61
2021/03/14 16:15:11;;;;;;;13.80;3.73;;;;;;;;;;10191138;28;20053;-60
2021/03/14 16:20:09;;;;;;;9.37;3.10;;;;;;;;;;10218173;28;20038;-61
2021/03/14 16:25:07;;;;;;;5.22;2.30;;;;;;;;;;10221262;28;20045;-61
2021/03/14 16:30:05;;;;;;;11.50;1.73;;;;;;;;;;10212201;28;20499;-61
2021/03/14 16:35:03;;;;;;;10.80;2.70;;;;;;;;;;10217118;28;20630;-61
2021/03/14 16:40:00;;;;;;;10.53;1.63;;;;;;;;;;10198943;28;20645;-60
2021/03/14 16:44:58;;;;;;;9.43;1.60;;;;;;;;;;10225502;28;20085;-59
2021/03/14 16:49:56;;;;;;;4.03;1.23;;;;;;;;;;10205419;28;20066;-61
2021/03/14 16:54:53;;;;;;;;;;;;;;;;;;10206293;28;20618;-61
2021/03/14 16:59:51;;;;;;;10.63;1.65;;;;;;;;;;10194891;28;20221;-61
2021/03/14 17:04:48;;;;;;;14.10;2.00;;;;;;;;;;10215194;28;20065;-60
2021/03/14 17:09:46;;;;;;;9.97;1.87;;;;;;;;;;10208459;28;20037;-62
2021/03/14 17:14:43;;;;;;;9.30;1.87;;;;;;;;;;10215377;28;20045;-61
2021/03/14 17:19:41;;;;;;;12.77;2.00;;;;;;;;;;10210659;28;20133;-63
2021/03/14 17:24:38;;;;;;;9.10;1.87;;;;;;;;;;10215747;28;20061;-63
2021/03/14 17:29:35;;;;;;;12.80;2.17;;;;;;;;;;10205853;28;20149;-62
2021/03/14 17:34:33;;;;;;;13.00;2.37;;;;;;;;;;10232007;28;20041;-62
2021/03/14 17:39:31;;;;;;;5.83;1.50;;;;;;;;;;10198231;28;20435;-63
2021/03/14 17:44:29;;;;;;;11.52;2.35;;;;;;;;;;10215597;28;20073;-62
2021/03/14 17:49:26;;;;;;;15.33;1.97;;;;;;;;;;10217257;28;20050;-61
2021/03/14 17:54:24;;;;;;;10.97;1.57;;;;;;;;;;10224298;28;20492;-64
2021/03/14 17:59:21;;;;;;;12.57;1.67;;;;;;;;;;10206389;28;20034;-63
2021/03/14 18:04:22;;;;;;;15.23;2.37;;;;;;;;;;10210060;28;20146;-62
2021/03/14 18:09:19;;;;;;;10.20;2.10;;;;;;;;;;10211348;28;20338;-63
2021/03/14 18:14:17;;;;;;;10.23;2.40;;;;;;;;;;10211997;28;20073;-59
2021/03/14 18:19:15;;;;;;;12.17;2.37;;;;;;;;;;10213736;28;20034;-62
2021/03/14 18:24:12;;;;;;;13.32;2.10;;;;;;;;;;10207247;28;20573;-63
2021/03/14 18:29:09;;;;;;;10.77;2.10;;;;;;;;;;10205295;28;20108;-63
2021/03/14 18:34:07;;;;;;;17.10;1.90;;;;;;;;;;10221073;28;20053;-64
2021/03/14 18:39:04;;;;;;;9.70;2.37;;;;;;;;;;10205540;28;20129;-64
2021/03/14 18:44:03;;;;;;;12.70;2.93;;;;;;;;;;10219319;28;20042;-62
2021/03/14 18:49:02;;;;;;;10.93;2.63;;;;;;;;;;10221695;28;20088;-63
2021/03/14 18:54:06;;;;;;;14.35;2.40;;;;;;;;;;10223841;28;20423;-60
2021/03/14 18:59:04;;;;;;;17.50;2.67;;;;;;;;;;10199186;28;20590;-61
2021/03/14 19:04:01;;;;;;;12.07;2.40;;;;;;;;;;10220027;28;20074;-61
2021/03/14 19:08:59;;;;;;;13.23;2.93;;;;;;;;;;10216645;28;20046;-63
2021/03/14 19:13:56;;;;;;;16.50;3.40;;;;;;;;;;10212768;28;20841;-62
2021/03/14 19:18:54;;;;;;;11.30;2.60;;;;;;;;;;10219826;28;20049;-62
2021/03/14 19:23:51;;;;;;;11.43;2.63;;;;;;;;;;10210316;28;20057;-61
2021/03/14 19:28:49;;;;;;;5.73;2.40;;;;;;;;;;10209194;28;20531;-60
2021/03/14 19:33:46;;;;;;;17.10;2.83;;;;;;;;;;10221064;28;21546;-61
2021/03/14 19:38:44;;;;;;;2.93;1.40;;;;;;;;;;10215330;28;20088;-61
2021/03/14 19:43:42;;;;;;;10.45;2.08;;;;;;;;;;10210489;28;20046;-61
2021/03/14 19:48:39;;;;;;;9.27;2.17;;;;;;;;;;10209034;28;20038;-60
2021/03/14 19:53:36;;;;;;;7.33;1.50;;;;;;;;;;10220828;28;20033;-61
2021/03/14 19:58:34;;;;;;;11.03;2.27;;;;;;;;;;10218682;28;20042;-62
2021/03/14 20:03:31;;;;;;;7.30;2.10;;;;;;;;;;10226556;28;20042;-61
2021/03/14 20:08:29;;;;;;;12.00;2.43;;;;;;;;;;10227189;28;20091;-61
2021/03/14 20:13:26;;;;;;;24.63;5.50;;;;;;;;;;10210030;28;20576;-63
2021/03/14 20:18:24;;;;;;;78.87;27.03;;;;;;;;;;10229705;28;20601;-61
2021/03/14 20:23:22;;;;;;;122.35;40.22;;;;;;;;;;10208437;28;20075;-60
2021/03/14 20:28:19;;;;;;;89.93;31.57;;;;;;;;;;10225735;28;20084;-64
2021/03/14 20:33:18;;;;;;;77.60;26.77;;;;;;;;;;10222550;28;20435;-61
2021/03/14 20:38:15;;;;;;;;;;;;;;;;;;10216408;28;20038;-60
2021/03/14 20:43:13;;;;;;;74.95;27.38;;;;;;;;;;10226661;28;20391;-61
2021/03/14 20:48:10;;;;;;;62.17;24.00;;;;;;;;;;10235376;28;20062;-62
2021/03/14 20:53:08;;;;;;;53.37;19.87;;;;;;;;;;10222360;28;20054;-60
2021/03/14 20:58:05;;;;;;;49.00;20.70;;;;;;;;;;10216871;28;20041;-61
2021/03/14 21:03:03;;;;;;;43.07;17.73;;;;;;;;;;10223348;28;20138;-61
2021/03/14 21:08:01;;;;;;;24.70;12.03;;;;;;;;;;10225719;28;20046;-61
2021/03/14 21:12:59;;;;;;;24.02;8.73;;;;;;;;;;10224310;28;20064;-62
2021/03/14 21:17:56;;;;;;;16.17;5.67;;;;;;;;;;10203947;28;20447;-62
2021/03/14 21:22:54;;;;;;;25.53;7.60;;;;;;;;;;10222553;28;20053;-61
2021/03/14 21:27:51;;;;;;;23.13;7.30;;;;;;;;;;10217471;28;20083;-60
2021/03/14 21:32:49;;;;;;;13.30;5.17;;;;;;;;;;10191929;28;20490;-61
2021/03/14 21:37:46;;;;;;;9.70;3.87;;;;;;;;;;10222276;28;20042;-63
2021/03/14 21:42:43;;;;;;;16.40;3.73;;;;;;;;;;10202225;28;20041;-61
2021/03/14 21:47:41;;;;;;;13.40;3.10;;;;;;;;;;10220242;28;20651;-61
2021/03/14 21:52:39;;;;;;;9.47;3.17;;;;;;;;;;10223953;28;20144;-61
2021/03/14 21:57:36;;;;;;;11.90;3.33;;;;;;;;;;10220257;28;20069;-59
2021/03/14 22:02:34;;;;;;;9.23;1.90;;;;;;;;;;10225602;28;20488;-60
2021/03/14 22:07:31;;;;;;;11.87;2.40;;;;;;;;;;10209810;28;20045;-61
2021/03/14 22:12:28;;;;;;;6.33;2.40;;;;;;;;;;10220330;28;20109;-64
2021/03/14 22:17:26;;;;;;;14.93;2.17;;;;;;;;;;10222772;28;20088;-61
2021/03/14 22:22:25;;;;;;;8.50;1.60;;;;;;;;;;10223935;28;20515;-60
2021/03/14 22:27:22;;;;;;;9.57;2.08;;;;;;;;;;10211723;28;20033;-63
2021/03/14 22:32:19;;;;;;;5.43;1.63;;;;;;;;;;10226606;28;20550;-61
2021/03/14 22:37:18;;;;;;;6.20;1.20;;;;;;;;;;10249177;28;20029;-61
2021/03/14 22:42:15;;;;;;;;;;;;;;;;;;10232820;28;20627;-60
2021/03/14 22:47:13;;;;;;;1.08;0.63;;;;;;;;;;10241285;28;19916;-60
2021/03/14 22:52:10;;;;;;;4.63;1.33;;;;;;;;;;10237269;28;20392;-61
2021/03/14 22:57:07;;;;;;;1.30;0.57;;;;;;;;;;10223795;28;20079;-62
2021/03/14 23:02:05;;;;;;;5.33;0.67;;;;;;;;;;10230332;28;20084;-61
2021/03/14 23:07:02;;;;;;;6.57;1.17;;;;;;;;;;10226389;28;20064;-59
2021/03/14 23:12:00;;;;;;;0.67;0.40;;;;;;;;;;10215920;28;20583;-59
2021/03/14 23:17:01;;;;;;;3.93;0.80;;;;;;;;;;10233668;28;20040;-59
2021/03/14 23:21:58;;;;;;;5.35;1.17;;;;;;;;;;10235636;28;20033;-60
2021/03/14 23:26:56;;;;;;;6.23;0.93;;;;;;;;;;10235838;28;20053;-59
2021/03/14 23:31:55;;;;;;;3.80;0.50;;;;;;;;;;10228384;28;20104;-61
2021/03/14 23:36:52;;;;;;;3.60;0.95;;;;;;;;;;10202271;28;20164;-61
2021/03/14 23:41:50;;;;;;;1.17;0.97;;;;;;;;;;10197927;28;20668;-61
2021/03/14 23:46:47;;;;;;;3.80;0.93;;;;;;;;;;10193391;28;20110;-63
2021/03/14 23:51:46;;;;;;;9.20;1.27;;;;;;;;;;10213316;28;20128;-62
2021/03/14 23:56:43;;;;;;;1.77;0.65;;;;;;;;;;10226958;28;20089;-62
